Time;durP1;ratioP1;P1;durP2;ratioP2;P2;SDS_P1;SDS_P2;PMS_P1;PMS_P2;Temp;Humidity;BMP_temperature;BMP_pressure;BME280_temperature;BME280_humidity;BME280_pressure;Samples;Min_cycle;Max_cycle;Signal;HPM_P1;HPM_P2
2022/10/19 00:00:49;;;;;;;;;;;20.10;93.60;;;;;;5114892;28;19908;-40
2022/10/19 00:03:15;;;;;;;;;;;20.10;93.60;;;;;;5114762;28;19908;-40
2022/10/19 00:05:41;;;;;;;;;;;20.10;93.60;;;;;;5114865;28;19922;-40
2022/10/19 00:08:07;;;;;;;;;;;20.10;93.60;;;;;;5114325;28;20308;-41
2022/10/19 00:10:33;;;;;;;;;;;20.10;93.50;;;;;;5115013;28;20253;-40
2022/10/19 00:12:58;;;;;;;;;;;20.10;93.60;;;;;;5114656;28;20422;-40
2022/10/19 00:15:24;;;;;;;;;;;20.10;93.50;;;;;;5114272;28;19942;-40
2022/10/19 00:17:49;;;;;;;;;;;20.10;93.60;;;;;;5114264;28;19970;-40
2022/10/19 00:20:14;;;;;;;;;;;20.10;93.60;;;;;;5113338;28;20248;-40
2022/10/19 00:22:40;;;;;;;;;;;20.10;93.50;;;;;;5114329;28;19994;-40
2022/10/19 00:25:06;;;;;;;;;;;20.10;93.60;;;;;;5114522;28;19957;-40
2022/10/19 00:27:31;;;;;;;;;;;20.10;93.60;;;;;;5114510;28;19921;-40
2022/10/19 00:29:57;;;;;;;;;;;20.10;93.50;;;;;;5114522;28;19994;-39
2022/10/19 00:32:22;;;;;;;;;;;20.10;93.60;;;;;;5114170;28;19992;-40
2022/10/19 00:34:47;;;;;;;;;;;20.10;93.60;;;;;;5114380;28;20274;-40
2022/10/19 00:37:13;;;;;;;;;;;20.10;93.60;;;;;;5114113;28;19962;-40
2022/10/19 00:39:38;;;;;;;;;;;20.10;93.60;;;;;;5114117;28;19908;-39
2022/10/19 00:42:04;;;;;;;;;;;20.10;93.60;;;;;;5114027;28;19915;-39
2022/10/19 00:44:29;;;;;;;;;;;20.10;93.60;;;;;;5113368;28;20368;-38
2022/10/19 00:47:01;;;;;;;;;;;20.10;93.50;;;;;;5113978;28;19912;-39
2022/10/19 00:49:31;;;;;;;;;;;20.10;93.50;;;;;;5114171;28;20349;-40
2022/10/19 00:52:01;;;;;;;;;;;20.10;93.50;;;;;;5114502;28;20349;-39
2022/10/19 00:54:27;;;;;;;;;;;20.10;93.50;;;;;;5134481;28;19908;-39
2022/10/19 00:56:53;;;;;;;;;;;20.10;93.50;;;;;;5134687;28;19922;-40
2022/10/19 00:59:20;;;;;;;;;;;20.10;93.50;;;;;;5133035;28;19912;-40
2022/10/19 01:01:46;;;;;;;;;;;20.10;93.50;;;;;;5131196;28;19908;-40
2022/10/19 01:04:12;;;;;;;;;;;20.10;93.50;;;;;;5095970;28;19914;-39
2022/10/19 01:06:39;;;;;;;;;;;20.10;93.50;;;;;;5111876;28;20314;-40
2022/10/19 01:09:05;;;;;;;;;;;20.10;93.50;;;;;;5125098;27;19951;-40
2022/10/19 01:11:31;;;;;;;;;;;20.10;93.50;;;;;;5117699;28;19962;-40
2022/10/19 01:14:15;;;;;;;;;;;20.10;93.50;;;;;;5117777;28;19908;-40
2022/10/19 01:16:50;;;;;;;;;;;20.10;93.50;;;;;;5117619;28;19968;-40
2022/10/19 01:19:24;;;;;;;;;;;20.10;93.50;;;;;;5117572;28;19942;-40
2022/10/19 01:21:54;;;;;;;;;;;20.10;93.50;;;;;;5117571;28;20006;-40
2022/10/19 01:24:25;;;;;;;;;;;20.10;93.50;;;;;;5117358;28;19907;-40
2022/10/19 01:27:09;;;;;;;;;;;20.10;93.50;;;;;;5117211;28;19914;-41
2022/10/19 01:29:53;;;;;;;;;;;20.10;93.50;;;;;;5116223;28;19907;-40
2022/10/19 01:32:25;;;;;;;;;;;20.10;93.50;;;;;;5118766;27;20314;-40
2022/10/19 01:35:17;;;;;;;;;;;20.10;93.50;;;;;;5138215;27;19908;-41
2022/10/19 01:37:47;;;;;;;;;;;20.00;93.50;;;;;;5105189;27;20391;-47
2022/10/19 01:40:39;;;;;;;;;;;20.10;93.50;;;;;;5115917;28;19908;-40
2022/10/19 01:43:23;;;;;;;;;;;20.00;93.40;;;;;;5084339;28;19912;-48
2022/10/19 01:45:52;;;;;;;;;;;20.10;93.50;;;;;;5103745;27;19941;-39
2022/10/19 01:48:20;;;;;;;;;;;20.10;93.50;;;;;;5136075;27;19961;-40
2022/10/19 01:50:50;;;;;;;;;;;20.10;93.50;;;;;;5135743;27;19907;-40
2022/10/19 01:53:16;;;;;;;;;;;20.10;93.50;;;;;;5135468;27;19907;-40
2022/10/19 01:55:43;;;;;;;;;;;20.10;93.50;;;;;;5135746;27;19933;-41
2022/10/19 01:58:11;;;;;;;;;;;20.00;93.40;;;;;;5135557;27;19921;-41
2022/10/19 02:00:38;;;;;;;;;;;20.10;93.50;;;;;;5135292;27;19907;-41
2022/10/19 02:03:04;;;;;;;;;;;20.10;93.50;;;;;;5136909;27;20358;-39
2022/10/19 02:05:32;;;;;;;;;;;20.10;93.40;;;;;;5137217;27;19907;-39
2022/10/19 02:07:59;;;;;;;;;;;20.10;93.50;;;;;;5137035;27;19980;-40
2022/10/19 02:10:26;;;;;;;;;;;20.10;93.50;;;;;;5118724;27;20650;-40
2022/10/19 02:12:52;;;;;;;;;;;20.00;93.40;;;;;;5137431;27;19907;-40
2022/10/19 02:15:21;;;;;;;;;;;20.10;93.40;;;;;;5137038;27;19912;-41
2022/10/19 02:17:49;;;;;;;;;;;20.10;93.40;;;;;;5137029;27;19915;-41
2022/10/19 02:20:14;;;;;;;;;;;20.10;93.40;;;;;;5136525;27;19907;-44
2022/10/19 02:22:40;;;;;;;;;;;20.10;93.50;;;;;;5137245;27;19915;-41
2022/10/19 02:25:07;;;;;;;;;;;20.10;93.50;;;;;;5137161;27;19914;-40
2022/10/19 02:27:32;;;;;;;;;;;20.00;93.50;;;;;;5136798;27;19908;-41
2022/10/19 02:29:58;;;;;;;;;;;20.00;93.50;;;;;;5136797;27;20289;-41
2022/10/19 02:32:24;;;;;;;;;;;20.10;93.50;;;;;;5136770;27;19914;-41
2022/10/19 02:34:49;;;;;;;;;;;20.10;93.50;;;;;;5136912;27;19915;-41
2022/10/19 02:37:15;;;;;;;;;;;20.10;93.50;;;;;;5136551;27;19915;-43
2022/10/19 02:39:40;;;;;;;;;;;20.00;93.50;;;;;;5136549;27;19907;-41
2022/10/19 02:42:11;;;;;;;;;;;20.00;93.50;;;;;;5136437;27;19954;-40
2022/10/19 02:44:49;;;;;;;;;;;20.00;93.50;;;;;;5136729;27;20293;-41
2022/10/19 02:47:17;;;;;;;;;;;20.00;93.50;;;;;;5136604;27;19915;-39
2022/10/19 02:49:43;;;;;;;;;;;20.00;93.50;;;;;;5136373;27;19911;-39
2022/10/19 02:52:10;;;;;;;;;;;20.00;93.50;;;;;;5136292;27;19908;-38
2022/10/19 02:54:36;;;;;;;;;;;20.00;93.50;;;;;;5136718;27;19914;-39
2022/10/19 02:57:13;;;;;;;;;;;20.00;93.50;;;;;;5136377;27;20302;-39
2022/10/19 02:59:38;;;;;;;;;;;20.00;93.50;;;;;;5136515;27;19912;-40
2022/10/19 03:02:04;;;;;;;;;;;20.00;93.60;;;;;;5136386;27;19907;-39
2022/10/19 03:04:29;;;;;;;;;;;20.00;93.60;;;;;;5136336;27;20401;-40
2022/10/19 03:06:55;;;;;;;;;;;20.00;93.50;;;;;;5136023;27;19919;-39
2022/10/19 03:09:20;;;;;;;;;;;20.00;93.60;;;;;;5136260;27;20353;-41
2022/10/19 03:11:46;;;;;;;;;;;20.00;93.60;;;;;;5117787;27;20269;-41
2022/10/19 03:14:11;;;;;;;;;;;20.00;93.60;;;;;;5136016;27;20257;-40
2022/10/19 03:16:37;;;;;;;;;;;20.00;93.50;;;;;;5135702;27;19958;-41
2022/10/19 03:19:02;;;;;;;;;;;20.00;93.60;;;;;;5136014;27;19930;-39
2022/10/19 03:21:28;;;;;;;;;;;20.00;93.60;;;;;;5135688;27;19912;-39
2022/10/19 03:23:53;;;;;;;;;;;20.00;93.60;;;;;;5135943;27;20403;-39
2022/10/19 03:26:19;;;;;;;;;;;20.00;93.60;;;;;;5117480;27;19914;-40
2022/10/19 03:28:44;;;;;;;;;;;20.00;93.50;;;;;;5135820;27;19919;-39
2022/10/19 03:31:10;;;;;;;;;;;20.00;93.60;;;;;;5135234;27;20405;-40
2022/10/19 03:33:35;;;;;;;;;;;20.00;93.60;;;;;;5135711;27;19908;-39
2022/10/19 03:36:20;;;;;;;;;;;20.00;93.60;;;;;;5117329;27;20017;-40
2022/10/19 03:38:48;;;;;;;;;;;20.00;93.60;;;;;;5135383;27;19960;-45
2022/10/19 03:41:13;;;;;;;;;;;20.00;93.60;;;;;;5135365;27;19939;-41
2022/10/19 03:43:40;;;;;;;;;;;20.00;93.60;;;;;;5135568;27;19908;-40
2022/10/19 03:46:06;;;;;;;;;;;20.00;93.60;;;;;;5135564;27;19912;-40
2022/10/19 03:48:32;;;;;;;;;;;20.00;93.60;;;;;;5135213;27;19911;-40
2022/10/19 03:50:58;;;;;;;;;;;20.00;93.60;;;;;;5135201;27;19907;-40
2022/10/19 03:53:24;;;;;;;;;;;20.00;93.60;;;;;;5135147;27;19919;-41
2022/10/19 03:55:49;;;;;;;;;;;20.00;93.60;;;;;;5135408;27;19907;-41
2022/10/19 03:58:14;;;;;;;;;;;20.00;93.60;;;;;;5135082;27;20358;-40
2022/10/19 04:00:40;;;;;;;;;;;20.00;93.60;;;;;;5134995;27;19907;-40
2022/10/19 04:03:05;;;;;;;;;;;20.00;93.60;;;;;;5135244;27;19907;-40
2022/10/19 04:05:31;;;;;;;;;;;20.00;93.80;;;;;;5134986;27;19911;-40
2022/10/19 04:07:56;;;;;;;;;;;20.00;93.60;;;;;;5135597;27;20243;-40
2022/10/19 04:10:22;;;;;;;;;;;20.00;93.60;;;;;;5134841;27;19908;-41
2022/10/19 04:12:47;;;;;;;;;;;20.00;93.60;;;;;;5135180;27;19914;-41
2022/10/19 04:15:13;;;;;;;;;;;20.00;93.60;;;;;;5135171;27;19907;-40
2022/10/19 04:17:38;;;;;;;;;;;20.00;93.60;;;;;;5135037;27;19962;-40
2022/10/19 04:20:04;;;;;;;;;;;20.00;93.60;;;;;;5134762;27;19908;-41
2022/10/19 04:22:29;;;;;;;;;;;20.00;93.70;;;;;;5135025;28;19907;-40
2022/10/19 04:24:55;;;;;;;;;;;20.00;93.70;;;;;;5135005;28;19998;-40
2022/10/19 04:27:20;;;;;;;;;;;20.00;93.70;;;;;;5134665;28;20264;-40
2022/10/19 04:29:46;;;;;;;;;;;20.00;93.70;;;;;;5134899;28;20037;-40
2022/10/19 04:32:11;;;;;;;;;;;20.00;93.60;;;;;;5134313;28;19914;-40
2022/10/19 04:34:37;;;;;;;;;;;20.00;93.60;;;;;;5134343;28;19908;-40
2022/10/19 04:37:02;;;;;;;;;;;20.00;93.60;;;;;;5110367;28;19920;-41
2022/10/19 04:39:27;;;;;;;;;;;20.00;93.60;;;;;;5113369;28;20370;-43
2022/10/19 04:41:53;;;;;;;;;;;20.00;93.60;;;;;;5113481;28;20007;-41
2022/10/19 04:44:18;;;;;;;;;;;20.00;93.60;;;;;;5116110;28;19908;-45
2022/10/19 04:46:44;;;;;;;;;;;20.00;93.60;;;;;;5116707;28;19912;-41
2022/10/19 04:49:09;;;;;;;;;;;20.00;93.60;;;;;;5116886;28;19915;-42
2022/10/19 04:51:35;;;;;;;;;;;20.00;93.60;;;;;;5116227;28;20293;-43
2022/10/19 04:54:01;;;;;;;;;;;20.00;93.60;;;;;;5116452;28;19998;-40
2022/10/19 04:56:27;;;;;;;;;;;20.00;93.60;;;;;;5117644;28;20252;-40
2022/10/19 04:58:53;;;;;;;;;;;20.00;93.60;;;;;;5117678;28;20370;-41
2022/10/19 05:01:19;;;;;;;;;;;20.00;93.60;;;;;;5117740;28;19958;-41
2022/10/19 05:03:45;;;;;;;;;;;20.00;93.60;;;;;;5118117;28;20298;-40
2022/10/19 05:06:11;;;;;;;;;;;20.00;93.60;;;;;;5117718;28;19908;-40
2022/10/19 05:08:37;;;;;;;;;;;20.00;93.60;;;;;;5117831;28;19920;-40
2022/10/19 05:11:04;;;;;;;;;;;20.00;93.60;;;;;;5117940;28;20049;-41
2022/10/19 05:13:30;;;;;;;;;;;20.00;93.60;;;;;;5117568;28;19908;-40
2022/10/19 05:15:56;;;;;;;;;;;20.00;93.60;;;;;;5117474;28;20316;-40
2022/10/19 05:18:22;;;;;;;;;;;20.00;93.60;;;;;;5117423;28;19961;-40
2022/10/19 05:20:48;;;;;;;;;;;20.00;93.60;;;;;;5113969;28;19911;-41
2022/10/19 05:23:13;;;;;;;;;;;20.00;93.60;;;;;;5117305;28;19969;-40
2022/10/19 05:25:39;;;;;;;;;;;20.00;93.60;;;;;;5117309;28;20007;-46
2022/10/19 05:28:04;;;;;;;;;;;20.00;93.60;;;;;;5115917;28;20267;-40
2022/10/19 05:30:31;;;;;;;;;;;20.00;93.60;;;;;;5115574;28;20246;-40
2022/10/19 05:32:57;;;;;;;;;;;20.00;93.50;;;;;;5115488;28;19953;-41
2022/10/19 05:35:22;;;;;;;;;;;20.00;93.60;;;;;;5115830;28;19907;-40
2022/10/19 05:37:47;;;;;;;;;;;20.00;93.60;;;;;;5114373;28;19934;-40
2022/10/19 05:40:13;;;;;;;;;;;20.00;93.60;;;;;;5115689;28;20361;-40
2022/10/19 05:42:38;;;;;;;;;;;20.00;93.60;;;;;;5114175;28;19995;-40
2022/10/19 05:45:04;;;;;;;;;;;20.00;93.60;;;;;;5114966;28;19919;-40
2022/10/19 05:47:30;;;;;;;;;;;20.00;93.60;;;;;;5113370;28;19969;-40
2022/10/19 05:49:56;;;;;;;;;;;20.00;93.70;;;;;;5115635;28;20381;-40
2022/10/19 05:52:21;;;;;;;;;;;20.00;93.70;;;;;;5115573;28;19916;-41
2022/10/19 05:54:47;;;;;;;;;;;20.00;93.70;;;;;;5116560;28;19907;-40
2022/10/19 05:57:12;;;;;;;;;;;20.00;93.80;;;;;;5113643;28;19924;-40
2022/10/19 05:59:38;;;;;;;;;;;20.00;93.90;;;;;;5110846;28;19951;-39
2022/10/19 06:02:03;;;;;;;;;;;20.10;93.90;;;;;;5113381;28;20066;-39
2022/10/19 06:04:29;;;;;;;;;;;20.10;93.80;;;;;;5114243;28;19908;-39
2022/10/19 06:06:54;;;;;;;;;;;20.10;93.90;;;;;;5115407;28;19960;-39
2022/10/19 06:09:20;;;;;;;;;;;20.00;93.90;;;;;;5112546;28;19965;-40
2022/10/19 06:11:46;;;;;;;;;;;20.00;93.90;;;;;;5115767;28;19915;-40
2022/10/19 06:14:14;;;;;;;;;;;20.00;94.00;;;;;;5113178;28;19919;-40
2022/10/19 06:16:40;;;;;;;;;;;20.00;94.00;;;;;;5115943;28;19931;-40
2022/10/19 06:19:05;;;;;;;;;;;20.00;94.20;;;;;;5115802;28;19908;-40
2022/10/19 06:21:31;;;;;;;;;;;20.00;94.00;;;;;;5116189;28;19931;-40
2022/10/19 06:23:58;;;;;;;;;;;20.00;94.00;;;;;;5116307;28;19996;-40
2022/10/19 06:26:24;;;;;;;;;;;20.00;94.00;;;;;;5115930;28;19912;-40
2022/10/19 06:28:49;;;;;;;;;;;20.00;94.00;;;;;;5116317;28;19915;-39
2022/10/19 06:31:15;;;;;;;;;;;20.00;94.00;;;;;;5116240;28;19998;-40
2022/10/19 06:33:41;;;;;;;;;;;20.00;94.00;;;;;;5116327;28;19907;-40
2022/10/19 06:36:11;;;;;;;;;;;20.00;94.00;;;;;;5115561;28;19915;-40
2022/10/19 06:38:37;;;;;;;;;;;20.00;94.00;;;;;;5116172;28;19916;-40
2022/10/19 06:41:03;;;;;;;;;;;20.00;93.90;;;;;;5116065;28;20022;-40
2022/10/19 06:43:29;;;;;;;;;;;20.00;94.00;;;;;;5115983;28;20378;-40
2022/10/19 06:45:54;;;;;;;;;;;20.00;94.00;;;;;;5115904;28;19908;-40
2022/10/19 06:48:20;;;;;;;;;;;20.00;93.90;;;;;;5115896;28;19959;-45
2022/10/19 06:50:45;;;;;;;;;;;20.00;93.90;;;;;;5115861;28;19908;-40
2022/10/19 06:53:11;;;;;;;;;;;20.00;93.90;;;;;;5115747;28;19915;-40
2022/10/19 06:55:36;;;;;;;;;;;20.00;93.90;;;;;;5115451;28;20405;-40
2022/10/19 06:58:02;;;;;;;;;;;20.00;93.90;;;;;;5115495;28;19916;-40
2022/10/19 07:00:28;;;;;;;;;;;20.00;93.90;;;;;;5115345;28;19907;-40
2022/10/19 07:02:54;;;;;;;;;;;20.00;93.90;;;;;;5115146;28;19908;-41
2022/10/19 07:05:19;;;;;;;;;;;20.00;93.90;;;;;;5115088;28;19987;-40
2022/10/19 07:07:45;;;;;;;;;;;20.00;93.90;;;;;;5115320;28;19939;-40
2022/10/19 07:10:10;;;;;;;;;;;20.00;93.90;;;;;;5115354;28;19929;-40
2022/10/19 07:12:36;;;;;;;;;;;20.00;93.90;;;;;;5115386;28;19958;-40
2022/10/19 07:15:01;;;;;;;;;;;20.00;93.90;;;;;;5114934;28;19958;-40
2022/10/19 07:17:27;;;;;;;;;;;20.00;93.80;;;;;;5115182;28;19961;-40
2022/10/19 07:19:52;;;;;;;;;;;20.10;93.80;;;;;;5115392;28;19907;-40
2022/10/19 07:22:18;;;;;;;;;;;20.00;93.80;;;;;;5115266;28;20342;-40
2022/10/19 07:24:43;;;;;;;;;;;20.00;93.80;;;;;;5114890;28;19915;-40
2022/10/19 07:27:08;;;;;;;;;;;20.00;93.80;;;;;;5114775;28;20354;-40
2022/10/19 07:29:34;;;;;;;;;;;20.00;93.80;;;;;;5114789;28;19908;-40
2022/10/19 07:31:59;;;;;;;;;;;20.00;93.80;;;;;;5115102;28;19908;-40
2022/10/19 07:34:25;;;;;;;;;;;20.00;93.80;;;;;;5096751;28;20362;-40
2022/10/19 07:36:51;;;;;;;;;;;20.00;93.80;;;;;;5114524;28;19916;-40
2022/10/19 07:39:17;;;;;;;;;;;20.00;93.80;;;;;;5115162;28;20025;-40
2022/10/19 07:41:43;;;;;;;;;;;20.00;93.80;;;;;;5114873;28;19939;-40
2022/10/19 07:44:08;;;;;;;;;;;20.00;93.80;;;;;;5114858;28;19911;-40
2022/10/19 07:46:37;;;;;;;;;;;20.00;93.80;;;;;;5114683;28;19914;-40
2022/10/19 07:49:04;;;;;;;;;;;20.00;93.80;;;;;;5114712;28;19914;-40
2022/10/19 07:51:30;;;;;;;;;;;20.00;93.80;;;;;;5114633;28;19961;-40
2022/10/19 07:53:56;;;;;;;;;;;20.00;93.80;;;;;;5114353;28;19911;-40
2022/10/19 07:56:23;;;;;;;;;;;20.00;93.80;;;;;;5114421;28;19911;-41
2022/10/19 07:58:49;;;;;;;;;;;20.00;93.80;;;;;;5114725;28;19912;-40
2022/10/19 08:01:16;;;;;;;;;;;20.00;93.80;;;;;;5114613;28;19962;-40
2022/10/19 08:03:41;;;;;;;;;;;20.00;93.80;;;;;;5114613;28;19914;-40
2022/10/19 08:06:09;;;;;;;;;;;20.00;93.80;;;;;;5114133;28;19908;-40
2022/10/19 08:08:34;;;;;;;;;;;20.00;93.80;;;;;;5114632;28;19958;-40
2022/10/19 08:11:10;;;;;;;;;;;20.00;94.00;;;;;;5114539;28;19939;-40
2022/10/19 08:13:36;;;;;;;;;;;20.00;93.80;;;;;;5114442;28;19907;-40
2022/10/19 08:16:02;;;;;;;;;;;20.00;93.80;;;;;;5113951;28;19908;-40
2022/10/19 08:18:28;;;;;;;;;;;20.00;93.80;;;;;;5114140;28;19965;-40
2022/10/19 08:20:53;;;;;;;;;;;20.00;93.80;;;;;;5114463;28;20343;-41
2022/10/19 08:23:19;;;;;;;;;;;20.00;93.70;;;;;;5114011;28;19908;-40
2022/10/19 08:25:44;;;;;;;;;;;20.00;93.70;;;;;;5113931;28;19908;-40
2022/10/19 08:28:09;;;;;;;;;;;20.00;93.70;;;;;;5113845;28;19915;-40
2022/10/19 08:30:35;;;;;;;;;;;20.00;93.70;;;;;;5114039;28;19908;-40
2022/10/19 08:33:02;;;;;;;;;;;20.00;93.70;;;;;;5114124;28;19915;-40
2022/10/19 08:35:28;;;;;;;;;;;20.00;93.70;;;;;;5113921;28;19908;-40
2022/10/19 08:37:54;;;;;;;;;;;20.00;93.70;;;;;;5113589;28;19937;-40
2022/10/19 08:40:21;;;;;;;;;;;20.00;93.70;;;;;;5114109;28;19908;-40
2022/10/19 08:42:47;;;;;;;;;;;20.00;93.60;;;;;;5113825;28;20297;-40
2022/10/19 08:45:25;;;;;;;;;;;20.00;93.60;;;;;;5113901;28;19931;-40
2022/10/19 08:47:53;;;;;;;;;;;20.00;93.60;;;;;;5114068;28;19908;-40
2022/10/19 08:50:21;;;;;;;;;;;20.10;93.60;;;;;;5096169;28;19912;-40
2022/10/19 08:52:50;;;;;;;;;;;20.10;93.60;;;;;;5114169;28;20274;-40
2022/10/19 08:55:17;;;;;;;;;;;20.00;93.60;;;;;;5113858;28;19990;-40
2022/10/19 08:58:01;;;;;;;;;;;20.10;93.60;;;;;;5113976;28;19955;-40
2022/10/19 09:00:44;;;;;;;;;;;20.10;93.60;;;;;;5114027;28;19915;-40
2022/10/19 09:03:14;;;;;;;;;;;20.00;93.60;;;;;;5113835;28;19908;-40
2022/10/19 09:05:39;;;;;;;;;;;20.10;93.60;;;;;;5113631;28;19953;-40
2022/10/19 09:08:07;;;;;;;;;;;20.10;93.60;;;;;;5113352;28;19919;-40
2022/10/19 09:10:34;;;;;;;;;;;20.10;93.60;;;;;;5113932;28;19915;-40
2022/10/19 09:12:59;;;;;;;;;;;20.10;93.50;;;;;;5113864;28;20265;-40
2022/10/19 09:15:33;;;;;;;;;;;20.10;93.50;;;;;;5113522;28;19908;-40
2022/10/19 09:18:00;;;;;;;;;;;20.10;93.60;;;;;;5113932;28;19951;-40
2022/10/19 09:20:30;;;;;;;;;;;20.10;93.60;;;;;;5113900;28;19908;-41
2022/10/19 09:23:00;;;;;;;;;;;20.10;93.50;;;;;;5113661;28;19976;-41
2022/10/19 09:25:28;;;;;;;;;;;20.10;93.50;;;;;;5113622;28;19908;-40
2022/10/19 09:27:59;;;;;;;;;;;20.10;93.50;;;;;;5113618;28;19939;-45
2022/10/19 09:30:26;;;;;;;;;;;20.10;93.50;;;;;;5117356;28;19908;-40
2022/10/19 09:32:59;;;;;;;;;;;20.10;93.50;;;;;;5117304;28;19964;-40
2022/10/19 09:35:40;;;;;;;;;;;20.10;93.50;;;;;;5117298;28;20434;-41
2022/10/19 09:38:06;;;;;;;;;;;20.10;93.50;;;;;;5117230;28;19916;-40
2022/10/19 09:40:33;;;;;;;;;;;20.10;93.50;;;;;;5116404;28;20441;-40
2022/10/19 09:43:07;;;;;;;;;;;20.10;93.50;;;;;;5098699;28;19965;-40
2022/10/19 09:45:54;;;;;;;;;;;20.10;93.50;;;;;;5117117;28;19908;-40
2022/10/19 09:48:19;;;;;;;;;;;20.10;93.50;;;;;;5116770;28;19908;-40
2022/10/19 09:50:50;;;;;;;;;;;20.10;93.50;;;;;;5117075;28;19915;-40
2022/10/19 09:53:17;;;;;;;;;;;20.10;93.50;;;;;;5116501;28;20061;-40
2022/10/19 09:55:44;;;;;;;;;;;20.10;93.50;;;;;;5116631;28;19915;-40
2022/10/19 09:58:12;;;;;;;;;;;20.10;93.50;;;;;;5116775;28;20443;-40
2022/10/19 10:00:41;;;;;;;;;;;20.10;93.50;;;;;;5116813;28;20339;-40
2022/10/19 10:03:06;;;;;;;;;;;20.10;93.40;;;;;;5098382;28;19908;-40
2022/10/19 10:05:32;;;;;;;;;;;20.10;93.40;;;;;;5116684;28;20006;-40
2022/10/19 10:07:58;;;;;;;;;;;20.10;93.50;;;;;;5116127;28;19924;-40
2022/10/19 10:10:26;;;;;;;;;;;20.00;93.40;;;;;;5116229;28;20022;-40
2022/10/19 10:12:52;;;;;;;;;;;20.10;93.40;;;;;;5116684;28;19908;-40
2022/10/19 10:15:20;;;;;;;;;;;20.10;93.40;;;;;;5116058;28;19942;-40
2022/10/19 10:17:46;;;;;;;;;;;20.00;93.40;;;;;;5115954;28;20374;-40
2022/10/19 10:20:22;;;;;;;;;;;20.10;93.40;;;;;;5116051;28;19915;-39
2022/10/19 10:22:52;;;;;;;;;;;20.10;93.40;;;;;;5116227;28;19912;-39
2022/10/19 10:25:18;;;;;;;;;;;20.10;93.40;;;;;;5116199;28;20235;-39
2022/10/19 10:27:53;;;;;;;;;;;20.10;93.40;;;;;;5116120;28;20006;-39
2022/10/19 10:30:18;;;;;;;;;;;20.10;93.40;;;;;;5116020;28;19912;-39
2022/10/19 10:32:47;;;;;;;;;;;20.10;93.40;;;;;;5115809;28;19950;-39
2022/10/19 10:35:17;;;;;;;;;;;20.10;93.40;;;;;;5116069;28;19952;-39
2022/10/19 10:37:44;;;;;;;;;;;20.10;93.30;;;;;;5115784;28;20279;-39
2022/10/19 10:40:23;;;;;;;;;;;20.10;93.30;;;;;;5115865;28;20366;-39
2022/10/19 10:42:49;;;;;;;;;;;20.10;93.40;;;;;;5115937;28;20262;-39
2022/10/19 10:45:21;;;;;;;;;;;20.10;93.30;;;;;;5115818;28;19954;-39
2022/10/19 10:47:47;;;;;;;;;;;20.10;93.30;;;;;;5115831;28;19908;-39
2022/10/19 10:50:21;;;;;;;;;;;20.10;93.30;;;;;;5097479;28;19988;-39
2022/10/19 10:53:16;;;;;;;;;;;20.10;93.30;;;;;;5115885;28;20006;-39
2022/10/19 10:55:53;;;;;;;;;;;20.10;93.30;;;;;;5097409;28;20257;-39
2022/10/19 10:58:23;;;;;;;;;;;20.10;93.30;;;;;;5114989;28;20011;-39
2022/10/19 11:00:50;;;;;;;;;;;20.10;93.30;;;;;;5115096;28;19912;-39
2022/10/19 11:03:23;;;;;;;;;;;20.10;93.30;;;;;;5115696;28;19907;-39
2022/10/19 11:05:53;;;;;;;;;;;20.10;93.30;;;;;;5115471;28;19911;-39
2022/10/19 11:08:18;;;;;;;;;;;20.10;93.30;;;;;;5115671;28;19924;-39
2022/10/19 11:10:48;;;;;;;;;;;20.10;93.20;;;;;;5115202;28;20058;-39
2022/10/19 11:13:27;;;;;;;;;;;20.10;93.20;;;;;;5115727;28;19908;-39
2022/10/19 11:15:54;;;;;;;;;;;20.10;93.20;;;;;;5115725;28;19965;-39
2022/10/19 11:18:33;;;;;;;;;;;20.10;93.20;;;;;;5115042;28;19915;-39
2022/10/19 11:21:08;;;;;;;;;;;20.10;93.20;;;;;;5115264;28;19919;-39
2022/10/19 11:23:52;;;;;;;;;;;20.10;93.20;;;;;;5114871;28;20038;-39
2022/10/19 11:26:31;;;;;;;;;;;20.10;93.20;;;;;;5114307;28;19951;-39
2022/10/19 11:29:08;;;;;;;;;;;20.10;93.20;;;;;;5114434;28;19912;-41
2022/10/19 11:31:36;;;;;;;;;;;20.10;93.20;;;;;;5114575;28;19907;-39
2022/10/19 11:34:10;;;;;;;;;;;20.10;93.20;;;;;;5114310;28;19908;-40
2022/10/19 11:36:38;;;;;;;;;;;20.10;93.20;;;;;;5114626;28;20024;-39
2022/10/19 11:39:18;;;;;;;;;;;20.10;93.20;;;;;;5114531;28;20366;-39
2022/10/19 11:41:48;;;;;;;;;;;20.10;93.20;;;;;;5114869;28;19908;-40
2022/10/19 11:44:21;;;;;;;;;;;20.10;93.20;;;;;;5114844;28;19915;-39
2022/10/19 11:47:14;;;;;;;;;;;20.10;93.20;;;;;;5114608;28;19914;-40
2022/10/19 11:49:45;;;;;;;;;;;20.10;93.40;;;;;;5114764;28;20007;-39
2022/10/19 11:52:15;;;;;;;;;;;20.10;93.20;;;;;;5114041;28;19912;-40
2022/10/19 11:54:43;;;;;;;;;;;20.10;93.10;;;;;;5114584;28;19915;-40
2022/10/19 11:57:11;;;;;;;;;;;20.10;93.10;;;;;;5114594;28;19923;-40
2022/10/19 11:59:52;;;;;;;;;;;20.10;93.10;;;;;;5114493;28;19961;-40
2022/10/19 12:02:46;;;;;;;;;;;20.10;93.10;;;;;;5114382;28;19914;-39
2022/10/19 12:05:16;;;;;;;;;;;20.10;93.10;;;;;;5114598;28;19907;-39
2022/10/19 12:08:00;;;;;;;;;;;20.10;93.00;;;;;;5113789;28;20313;-40
2022/10/19 12:10:44;;;;;;;;;;;20.10;93.00;;;;;;5114510;28;19908;-39
2022/10/19 12:13:12;;;;;;;;;;;20.20;93.10;;;;;;5114187;28;19908;-39
2022/10/19 12:15:40;;;;;;;;;;;20.10;93.00;;;;;;5114324;28;20347;-40
2022/10/19 12:18:11;;;;;;;;;;;20.10;93.00;;;;;;5113954;28;19916;-40
2022/10/19 12:20:38;;;;;;;;;;;20.10;92.90;;;;;;5113985;28;19908;-40
2022/10/19 12:23:15;;;;;;;;;;;20.20;93.00;;;;;;5114024;28;19914;-39
2022/10/19 12:25:42;;;;;;;;;;;20.10;92.90;;;;;;5113962;28;20351;-40
2022/10/19 12:28:09;;;;;;;;;;;20.10;92.90;;;;;;5114123;28;19908;-39
2022/10/19 12:30:35;;;;;;;;;;;20.20;92.90;;;;;;5114083;28;20415;-40
2022/10/19 12:33:19;;;;;;;;;;;20.20;92.90;;;;;;5113917;28;19912;-40
2022/10/19 12:35:58;;;;;;;;;;;20.10;92.90;;;;;;5114129;28;19911;-40
2022/10/19 12:38:23;;;;;;;;;;;20.10;92.80;;;;;;5113540;28;20244;-40
2022/10/19 12:41:12;;;;;;;;;;;20.10;92.80;;;;;;5114096;28;19977;-40
2022/10/19 12:43:54;;;;;;;;;;;20.10;92.80;;;;;;5102502;28;19911;-39
2022/10/19 12:46:38;;;;;;;;;;;20.10;92.80;;;;;;5114256;28;19908;-39
2022/10/19 12:49:22;;;;;;;;;;;20.20;92.80;;;;;;5113695;28;19995;-40
2022/10/19 12:51:48;;;;;;;;;;;20.10;92.70;;;;;;5113756;28;19907;-40
2022/10/19 12:54:13;;;;;;;;;;;20.10;92.70;;;;;;5113501;28;19908;-40
2022/10/19 12:56:47;;;;;;;;;;;20.10;92.70;;;;;;5113560;28;20292;-40
2022/10/19 12:59:26;;;;;;;;;;;20.20;92.80;;;;;;5113840;28;20281;-40
2022/10/19 13:01:52;;;;;;;;;;;20.10;92.70;;;;;;5114304;28;19912;-40
2022/10/19 13:04:17;;;;;;;;;;;20.20;92.70;;;;;;5117261;28;20334;-40
2022/10/19 13:06:50;;;;;;;;;;;20.10;92.70;;;;;;5117648;28;19926;-40
2022/10/19 13:09:35;;;;;;;;;;;20.20;92.80;;;;;;5117909;28;19915;-40
2022/10/19 13:12:17;;;;;;;;;;;20.10;92.90;;;;;;5117779;28;19907;-40
2022/10/19 13:14:44;;;;;;;;;;;20.20;92.80;;;;;;5117778;28;19961;-40
2022/10/19 13:17:30;;;;;;;;;;;20.10;92.70;;;;;;5117394;28;19920;-40
2022/10/19 13:20:24;;;;;;;;;;;20.20;92.80;;;;;;5117233;28;20358;-40
2022/10/19 13:22:58;;;;;;;;;;;20.20;92.80;;;;;;5086832;28;19957;-40
2022/10/19 13:25:26;;;;;;;;;;;20.20;92.80;;;;;;5117423;28;20003;-40
2022/10/19 13:27:53;;;;;;;;;;;20.20;92.80;;;;;;5117290;28;19936;-40
2022/10/19 13:30:34;;;;;;;;;;;20.20;92.80;;;;;;5116804;28;19918;-40
2022/10/19 13:33:19;;;;;;;;;;;20.20;92.80;;;;;;5117092;28;20044;-41
2022/10/19 13:35:44;;;;;;;;;;;20.20;92.80;;;;;;5117347;28;19912;-40
2022/10/19 13:38:16;;;;;;;;;;;20.20;92.80;;;;;;5116584;28;20044;-40
2022/10/19 13:40:48;;;;;;;;;;;20.20;92.80;;;;;;5117023;28;19962;-40
2022/10/19 13:43:16;;;;;;;;;;;20.20;92.80;;;;;;5117070;28;19950;-40
2022/10/19 13:45:42;;;;;;;;;;;20.20;92.80;;;;;;5116913;28;19908;-40
2022/10/19 13:48:14;;;;;;;;;;;20.20;92.80;;;;;;5116415;28;20007;-40
2022/10/19 13:50:42;;;;;;;;;;;20.20;92.80;;;;;;5098631;28;20437;-41
2022/10/19 13:53:17;;;;;;;;;;;20.20;92.80;;;;;;5116955;28;19908;-40
2022/10/19 13:55:45;;;;;;;;;;;20.20;92.80;;;;;;5116427;28;19961;-40
2022/10/19 13:58:25;;;;;;;;;;;20.20;92.80;;;;;;5098285;28;19963;-40
2022/10/19 14:00:57;;;;;;;;;;;20.20;92.80;;;;;;5116616;28;20307;-40
2022/10/19 14:03:36;;;;;;;;;;;20.20;92.80;;;;;;5116520;28;19908;-40
2022/10/19 14:06:05;;;;;;;;;;;20.20;92.70;;;;;;5116341;28;19908;-40
2022/10/19 14:08:30;;;;;;;;;;;20.20;92.70;;;;;;5116357;28;19919;-41
2022/10/19 14:11:11;;;;;;;;;;;20.20;92.60;;;;;;5115905;28;20286;-40
2022/10/19 14:13:37;;;;;;;;;;;20.10;92.50;;;;;;5116324;28;19908;-40
2022/10/19 14:16:02;;;;;;;;;;;20.20;92.60;;;;;;5115253;28;19915;-40
2022/10/19 14:18:29;;;;;;;;;;;20.20;92.60;;;;;;5116414;28;19956;-40
2022/10/19 14:21:03;;;;;;;;;;;20.20;92.60;;;;;;5098208;28;20377;-40
2022/10/19 14:23:30;;;;;;;;;;;20.10;92.50;;;;;;5115920;28;20387;-41
2022/10/19 14:26:02;;;;;;;;;;;20.10;92.50;;;;;;5116143;28;19994;-40